Weather at Nukutepipi Airport

Public forecast

Using degrees Celsius for public forecast. Weather courtesy of forecast.io.

Closest aviation weather report (METAR) to Nukutepipi Airport

Report is more than 6 hours old.

Closest report is Anaa Airport, 244.8 nm (453.4 km) NW.

2023/01/31 06:00 (retrieved 1 day ago)

NTGA 310600Z 05008KT 9999 FEW019 BKN300 29/25 Q1005

Closest aviation forecast (TAF) to Nukutepipi Airport

Closest forecast is Faa'a International Airport, 417.3 nm (772.8 km) WNW.

2023/02/01 06:26 (retrieved 0 seconds ago)

TAF NTAA 010500Z 0106/0212 VRB05KT 9999 FEW020TCU FEW023 SCT045 PROB30 TEMPO 0106/0112 04018G28KT 2000 TSRA SCT016CB BKN040 BECMG 0118/0120 08015KT